Time;durP1;ratioP1;P1;durP2;ratioP2;P2;SDS_P1;SDS_P2;PMS_P1;PMS_P2;Temp;Humidity;BMP_temperature;BMP_pressure;BME280_temperature;BME280_humidity;BME280_pressure;Samples;Min_cycle;Max_cycle;Signal;HPM_P1;HPM_P2
2024/04/06 00:00:20;;;;;;;6.60;3.35;;;;;;;;;;5056880;28;20044;-62
2024/04/06 00:02:47;;;;;;;6.90;3.80;;;;;;;;;;5044991;28;20056;-61
2024/04/06 00:05:13;;;;;;;8.05;4.03;;;;;;;;;;5050734;28;20037;-63
2024/04/06 00:07:40;;;;;;;8.35;4.32;;;;;;;;;;5051122;28;20053;-62
2024/04/06 00:10:07;;;;;;;7.07;4.00;;;;;;;;;;5047890;28;20058;-62
2024/04/06 00:12:35;;;;;;;6.88;3.67;;;;;;;;;;5055178;28;20059;-62
2024/04/06 00:15:01;;;;;;;4.65;2.28;;;;;;;;;;5048270;28;20082;-61
2024/04/06 00:17:28;;;;;;;4.45;2.38;;;;;;;;;;5070575;28;20049;-63
2024/04/06 00:19:54;;;;;;;4.70;2.50;;;;;;;;;;5070765;28;20093;-62
2024/04/06 00:22:21;;;;;;;4.22;2.30;;;;;;;;;;5052039;28;20638;-62
2024/04/06 00:24:47;;;;;;;3.67;2.45;;;;;;;;;;5056644;28;20384;-62
2024/04/06 00:27:14;;;;;;;6.07;2.72;;;;;;;;;;5070420;28;20049;-62
2024/04/06 00:29:41;;;;;;;4.05;2.10;;;;;;;;;;5069208;28;20060;-62
2024/04/06 00:32:08;;;;;;;8.90;2.38;;;;;;;;;;5067434;28;20556;-62
2024/04/06 00:34:34;;;;;;;4.50;2.00;;;;;;;;;;5073890;28;20040;-62
2024/04/06 00:37:01;;;;;;;4.90;2.63;;;;;;;;;;5073344;28;20047;-63
2024/04/06 00:39:28;;;;;;;6.30;2.63;;;;;;;;;;5073810;28;20492;-62
2024/04/06 00:41:55;;;;;;;5.15;2.58;;;;;;;;;;5073390;28;20135;-62
2024/04/06 00:44:22;;;;;;;5.75;2.78;;;;;;;;;;5069447;28;20124;-61
2024/04/06 00:46:52;;;;;;;5.75;2.80;;;;;;;;;;5068312;28;20059;-61
2024/04/06 00:49:19;;;;;;;5.80;3.15;;;;;;;;;;5073988;28;20052;-62
2024/04/06 00:51:45;;;;;;;6.07;3.28;;;;;;;;;;5069364;28;20048;-62
2024/04/06 00:54:13;;;;;;;5.45;3.28;;;;;;;;;;5051473;28;20055;-61
2024/04/06 00:56:38;;;;;;;6.07;3.42;;;;;;;;;;5041774;28;20132;-62
2024/04/06 00:59:06;;;;;;;8.05;4.40;;;;;;;;;;5042997;28;20154;-61
2024/04/06 01:01:31;;;;;;;7.32;3.80;;;;;;;;;;5047445;28;20053;-62
2024/04/06 01:04:00;;;;;;;7.20;4.05;;;;;;;;;;5053115;28;20404;-61
2024/04/06 01:06:26;;;;;;;7.55;4.05;;;;;;;;;;5036800;28;20077;-62
2024/04/06 01:08:53;;;;;;;9.00;4.93;;;;;;;;;;5046688;28;20053;-62
2024/04/06 01:11:19;;;;;;;7.57;3.78;;;;;;;;;;5045295;28;20069;-62
2024/04/06 01:13:47;;;;;;;4.85;2.67;;;;;;;;;;5052089;28;20053;-61
2024/04/06 01:16:13;;;;;;;5.72;2.60;;;;;;;;;;5062706;28;20052;-61
2024/04/06 01:18:40;;;;;;;6.22;2.20;;;;;;;;;;5059515;28;20392;-61
2024/04/06 01:21:07;;;;;;;5.18;2.58;;;;;;;;;;5068573;28;20052;-62
2024/04/06 01:23:36;;;;;;;5.00;2.10;;;;;;;;;;5039126;28;20057;-62
2024/04/06 01:26:03;;;;;;;4.40;2.10;;;;;;;;;;5052701;28;20105;-62
2024/04/06 01:28:30;;;;;;;4.57;2.05;;;;;;;;;;5055974;28;20052;-62
2024/04/06 01:30:56;;;;;;;5.88;2.17;;;;;;;;;;5049903;28;20049;-62
2024/04/06 01:33:23;;;;;;;3.30;2.00;;;;;;;;;;5047958;28;20059;-62
2024/04/06 01:35:49;;;;;;;4.60;2.53;;;;;;;;;;5059387;28;20503;-62
2024/04/06 01:38:16;;;;;;;4.97;2.22;;;;;;;;;;5059984;28;20049;-62
2024/04/06 01:40:42;;;;;;;3.63;2.00;;;;;;;;;;5041204;28;20132;-63
2024/04/06 01:43:10;;;;;;;3.80;2.10;;;;;;;;;;5043418;28;20132;-61
2024/04/06 01:45:36;;;;;;;5.55;2.20;;;;;;;;;;5051962;28;20501;-62
2024/04/06 01:48:03;;;;;;;4.72;1.90;;;;;;;;;;5049332;28;20057;-62
2024/04/06 01:50:29;;;;;;;4.57;2.03;;;;;;;;;;5052195;28;20052;-62
2024/04/06 01:52:56;;;;;;;5.13;2.38;;;;;;;;;;5067786;28;20052;-62
2024/04/06 01:55:21;;;;;;;3.00;1.98;;;;;;;;;;5071949;28;20071;-61
2024/04/06 01:57:48;;;;;;;5.15;2.42;;;;;;;;;;5066016;28;20476;-61
2024/04/06 02:00:17;;;;;;;3.75;2.00;;;;;;;;;;5063021;28;20059;-62
2024/04/06 02:02:43;;;;;;;3.88;1.90;;;;;;;;;;5067010;28;20436;-61
2024/04/06 02:05:09;;;;;;;5.03;2.30;;;;;;;;;;5067287;28;20048;-62
2024/04/06 02:07:36;;;;;;;3.17;1.88;;;;;;;;;;5050151;28;20063;-61
2024/04/06 02:10:02;;;;;;;4.20;2.13;;;;;;;;;;5046094;28;20485;-61
2024/04/06 02:12:29;;;;;;;4.32;3.00;;;;;;;;;;5044903;28;20472;-62
2024/04/06 02:14:55;;;;;;;6.38;2.88;;;;;;;;;;5051106;28;20416;-61
2024/04/06 02:17:24;;;;;;;5.70;3.03;;;;;;;;;;5054650;28;20110;-61
2024/04/06 02:19:50;;;;;;;4.75;2.30;;;;;;;;;;5058597;28;20076;-61
2024/04/06 02:22:17;;;;;;;4.00;1.95;;;;;;;;;;5071214;28;20553;-62
2024/04/06 02:24:43;;;;;;;4.63;2.50;;;;;;;;;;5071403;28;20063;-62
2024/04/06 02:27:10;;;;;;;5.45;3.15;;;;;;;;;;5071877;28;20041;-62
2024/04/06 02:29:36;;;;;;;5.30;2.28;;;;;;;;;;5064229;28;20052;-62
2024/04/06 02:32:03;;;;;;;4.28;2.17;;;;;;;;;;5068122;28;20049;-62
2024/04/06 02:34:30;;;;;;;4.43;2.50;;;;;;;;;;5071231;28;20048;-62
2024/04/06 02:36:57;;;;;;;3.85;2.42;;;;;;;;;;5066366;28;20067;-62
2024/04/06 02:39:23;;;;;;;3.97;2.20;;;;;;;;;;5055374;28;20048;-62
2024/04/06 02:41:50;;;;;;;3.70;2.13;;;;;;;;;;5051912;28;20076;-63
2024/04/06 02:44:16;;;;;;;4.88;2.20;;;;;;;;;;5050050;28;20057;-62
2024/04/06 02:46:44;;;;;;;5.57;2.35;;;;;;;;;;5050935;28;20469;-62
2024/04/06 02:49:09;;;;;;;4.55;2.55;;;;;;;;;;5052508;28;20666;-63
2024/04/06 02:51:38;;;;;;;3.45;2.13;;;;;;;;;;5055938;28;20075;-62
2024/04/06 02:54:04;;;;;;;5.28;2.22;;;;;;;;;;5059082;28;20075;-62
2024/04/06 02:56:31;;;;;;;5.95;2.25;;;;;;;;;;5047848;28;20532;-62
2024/04/06 02:58:57;;;;;;;3.88;2.10;;;;;;;;;;5041743;28;20052;-62
2024/04/06 03:01:24;;;;;;;5.38;2.70;;;;;;;;;;5050145;28;20045;-62
2024/04/06 03:03:50;;;;;;;4.88;2.38;;;;;;;;;;5049017;28;20052;-62
2024/04/06 03:06:17;;;;;;;3.78;2.03;;;;;;;;;;5044578;28;20052;-62
2024/04/06 03:08:44;;;;;;;4.95;2.20;;;;;;;;;;5049960;28;20056;-62
2024/04/06 03:11:11;;;;;;;5.78;2.63;;;;;;;;;;5050758;28;20043;-61
2024/04/06 03:13:37;;;;;;;5.63;2.20;;;;;;;;;;5057196;28;20048;-62
2024/04/06 03:16:05;;;;;;;6.32;2.50;;;;;;;;;;5056099;28;20044;-62
2024/04/06 03:18:31;;;;;;;4.20;2.30;;;;;;;;;;5050978;28;20049;-62
2024/04/06 03:20:58;;;;;;;4.35;2.22;;;;;;;;;;5063264;28;20094;-62
2024/04/06 03:23:24;;;;;;;4.97;2.60;;;;;;;;;;5066962;28;20106;-62
2024/04/06 03:25:53;;;;;;;4.50;2.58;;;;;;;;;;5054033;28;20466;-62
2024/04/06 03:28:19;;;;;;;4.63;2.30;;;;;;;;;;5045448;28;20079;-62
2024/04/06 03:30:46;;;;;;;5.50;2.60;;;;;;;;;;5043130;28;20045;-62
2024/04/06 03:33:12;;;;;;;4.43;2.25;;;;;;;;;;5050726;28;20041;-62
2024/04/06 03:35:38;;;;;;;5.88;3.45;;;;;;;;;;5050096;28;20041;-62
2024/04/06 03:38:05;;;;;;;6.65;2.70;;;;;;;;;;5059651;28;20415;-62
2024/04/06 03:40:32;;;;;;;4.80;2.40;;;;;;;;;;5070213;28;20523;-62
2024/04/06 03:43:01;;;;;;;5.43;2.50;;;;;;;;;;5049977;28;20602;-62
2024/04/06 03:45:27;;;;;;;4.38;2.60;;;;;;;;;;5053994;28;20055;-62
2024/04/06 03:47:54;;;;;;;4.88;2.60;;;;;;;;;;5070518;28;20127;-62
2024/04/06 03:50:20;;;;;;;3.90;2.50;;;;;;;;;;5053560;28;20064;-62
2024/04/06 03:52:47;;;;;;;4.65;2.67;;;;;;;;;;5065113;28;20051;-62
2024/04/06 03:55:13;;;;;;;6.60;2.80;;;;;;;;;;5066706;28;20083;-61
2024/04/06 03:57:40;;;;;;;5.07;3.33;;;;;;;;;;5060766;28;20467;-61
2024/04/06 04:00:09;;;;;;;6.45;2.88;;;;;;;;;;5050828;28;20132;-62
2024/04/06 04:02:37;;;;;;;6.05;2.95;;;;;;;;;;5059568;28;20057;-61
2024/04/06 04:05:04;;;;;;;4.32;2.72;;;;;;;;;;5061400;28;20057;-61
2024/04/06 04:07:32;;;;;;;5.05;3.25;;;;;;;;;;5074571;28;20435;-62
2024/04/06 04:10:01;;;;;;;5.43;3.03;;;;;;;;;;5061404;28;20118;-62
2024/04/06 04:12:28;;;;;;;6.18;3.22;;;;;;;;;;5055373;28;20048;-62
2024/04/06 04:14:54;;;;;;;6.47;3.17;;;;;;;;;;5059155;28;20574;-62
2024/04/06 04:17:22;;;;;;;6.22;3.30;;;;;;;;;;5054379;28;20053;-62
2024/04/06 04:19:48;;;;;;;7.25;3.60;;;;;;;;;;5060180;28;20056;-62
2024/04/06 04:22:15;;;;;;;6.82;3.38;;;;;;;;;;5073626;28;20052;-62
2024/04/06 04:24:41;;;;;;;7.15;3.88;;;;;;;;;;5067095;28;20096;-62
2024/04/06 04:27:08;;;;;;;5.30;3.05;;;;;;;;;;5071368;28;20178;-62
2024/04/06 04:29:34;;;;;;;6.82;4.15;;;;;;;;;;5074071;28;20057;-60
2024/04/06 04:32:03;;;;;;;6.18;3.65;;;;;;;;;;5052394;28;20043;-62
2024/04/06 04:34:30;;;;;;;7.97;4.50;;;;;;;;;;5053196;28;20072;-61
2024/04/06 04:36:57;;;;;;;7.30;4.13;;;;;;;;;;5061784;28;20049;-62
2024/04/06 04:39:23;;;;;;;10.07;4.70;;;;;;;;;;5073701;28;20048;-62
2024/04/06 04:41:51;;;;;;;8.88;5.43;;;;;;;;;;5058634;28;20055;-62
2024/04/06 04:44:18;;;;;;;9.70;5.18;;;;;;;;;;5060328;28;20075;-62
2024/04/06 04:46:45;;;;;;;7.35;4.75;;;;;;;;;;5069332;28;20049;-61
2024/04/06 04:49:11;;;;;;;9.50;4.72;;;;;;;;;;5073276;28;20141;-62
2024/04/06 04:51:39;;;;;;;4.47;3.00;;;;;;;;;;5073795;28;20044;-61
2024/04/06 04:54:05;;;;;;;5.90;3.72;;;;;;;;;;5072580;28;20049;-62
2024/04/06 04:56:32;;;;;;;6.72;3.53;;;;;;;;;;5072692;28;20045;-62
2024/04/06 04:58:58;;;;;;;6.72;3.53;;;;;;;;;;5071763;28;20052;-62
2024/04/06 05:01:25;;;;;;;7.40;3.38;;;;;;;;;;5073286;28;20055;-63
2024/04/06 05:03:51;;;;;;;6.68;4.05;;;;;;;;;;5066232;28;20523;-62
2024/04/06 05:06:18;;;;;;;5.70;3.83;;;;;;;;;;5062312;28;20049;-63
2024/04/06 05:08:45;;;;;;;6.20;3.83;;;;;;;;;;5067914;28;20052;-62
2024/04/06 05:11:12;;;;;;;6.35;3.85;;;;;;;;;;5072978;28;20082;-63
2024/04/06 05:13:38;;;;;;;8.52;4.07;;;;;;;;;;5066130;28;20056;-62
2024/04/06 05:16:07;;;;;;;7.05;3.33;;;;;;;;;;5069047;28;20496;-62
2024/04/06 05:18:33;;;;;;;7.43;4.20;;;;;;;;;;5066364;28;20045;-61
2024/04/06 05:21:00;;;;;;;7.50;4.47;;;;;;;;;;5053357;28;20060;-62
2024/04/06 05:23:27;;;;;;;6.82;4.20;;;;;;;;;;5052610;28;20134;-63
2024/04/06 05:25:56;;;;;;;8.18;4.00;;;;;;;;;;5053227;28;20681;-63
2024/04/06 05:28:23;;;;;;;7.07;3.35;;;;;;;;;;5057037;28;20053;-60
2024/04/06 05:30:51;;;;;;;6.20;4.13;;;;;;;;;;5054003;28;20045;-63
2024/04/06 05:33:18;;;;;;;5.18;3.45;;;;;;;;;;5054647;28;20044;-62
2024/04/06 05:35:48;;;;;;;6.10;3.25;;;;;;;;;;5063384;28;20107;-61
2024/04/06 05:38:14;;;;;;;5.97;3.67;;;;;;;;;;5055502;28;20045;-62
2024/04/06 05:40:42;;;;;;;5.63;3.97;;;;;;;;;;5066570;28;20059;-61
2024/04/06 05:43:10;;;;;;;6.70;3.33;;;;;;;;;;5066139;28;20045;-62
2024/04/06 05:45:37;;;;;;;6.80;3.38;;;;;;;;;;5071647;28;20095;-63
2024/04/06 05:48:03;;;;;;;6.80;3.67;;;;;;;;;;5049799;28;20045;-61
2024/04/06 05:50:30;;;;;;;5.28;3.40;;;;;;;;;;5053516;28;20484;-61
2024/04/06 05:52:56;;;;;;;7.60;3.80;;;;;;;;;;5053612;28;20045;-62
2024/04/06 05:55:23;;;;;;;6.25;3.67;;;;;;;;;;5052800;28;20076;-61
2024/04/06 05:57:50;;;;;;;5.03;3.28;;;;;;;;;;5054821;28;20056;-61
2024/04/06 06:00:19;;;;;;;6.22;3.45;;;;;;;;;;5054755;28;20053;-61
2024/04/06 06:02:45;;;;;;;6.78;4.13;;;;;;;;;;5061094;28;20408;-61
2024/04/06 06:05:12;;;;;;;5.80;3.28;;;;;;;;;;5070052;28;20072;-62
2024/04/06 06:07:39;;;;;;;6.68;2.70;;;;;;;;;;5067982;28;20045;-61
2024/04/06 06:10:07;;;;;;;5.55;2.90;;;;;;;;;;5062587;28;20135;-61
2024/04/06 06:12:33;;;;;;;5.90;3.40;;;;;;;;;;5069177;28;20508;-61
2024/04/06 06:15:00;;;;;;;6.95;3.45;;;;;;;;;;5067768;28;20055;-62
2024/04/06 06:17:27;;;;;;;6.28;3.10;;;;;;;;;;5052306;28;20045;-61
2024/04/06 06:19:54;;;;;;;5.38;2.35;;;;;;;;;;5053100;28;20682;-61
2024/04/06 06:22:22;;;;;;;4.93;2.90;;;;;;;;;;5051840;28;20160;-61
2024/04/06 06:24:49;;;;;;;4.13;2.75;;;;;;;;;;5050707;28;20049;-61
2024/04/06 06:27:15;;;;;;;4.50;2.42;;;;;;;;;;5051927;28;20045;-61
2024/04/06 06:29:42;;;;;;;4.00;2.08;;;;;;;;;;5062945;28;20453;-62
2024/04/06 06:32:08;;;;;;;6.22;2.35;;;;;;;;;;5062538;28;20124;-60
2024/04/06 06:34:36;;;;;;;4.18;2.85;;;;;;;;;;5071662;28;20062;-61
2024/04/06 06:37:03;;;;;;;4.93;2.60;;;;;;;;;;5071180;28;20051;-61
2024/04/06 06:39:30;;;;;;;5.28;2.80;;;;;;;;;;5071796;28;20063;-61
2024/04/06 06:41:56;;;;;;;4.03;2.60;;;;;;;;;;5061208;28;20044;-61
2024/04/06 06:44:23;;;;;;;4.82;2.75;;;;;;;;;;5070182;28;20527;-61
2024/04/06 06:46:49;;;;;;;5.85;3.08;;;;;;;;;;5071004;28;20487;-61
2024/04/06 06:49:16;;;;;;;5.18;2.65;;;;;;;;;;5071642;28;20057;-61
2024/04/06 06:51:43;;;;;;;4.35;2.50;;;;;;;;;;5053363;28;20052;-62
2024/04/06 06:54:10;;;;;;;5.32;2.78;;;;;;;;;;5051874;28;20056;-62
2024/04/06 06:56:36;;;;;;;6.22;2.55;;;;;;;;;;5071642;28;20067;-62
2024/04/06 06:59:04;;;;;;;5.38;2.80;;;;;;;;;;5070861;28;20503;-61
2024/04/06 07:01:30;;;;;;;5.07;2.60;;;;;;;;;;5056722;28;20069;-61
2024/04/06 07:03:57;;;;;;;4.97;2.58;;;;;;;;;;5048828;28;20084;-61
2024/04/06 07:06:23;;;;;;;4.95;2.33;;;;;;;;;;5055364;28;20049;-61
2024/04/06 07:08:51;;;;;;;4.05;2.38;;;;;;;;;;5053362;28;20045;-61
2024/04/06 07:11:17;;;;;;;4.45;2.40;;;;;;;;;;5047087;28;20052;-62
2024/04/06 07:13:44;;;;;;;3.92;2.15;;;;;;;;;;5049344;28;20040;-62
2024/04/06 07:16:12;;;;;;;3.92;2.30;;;;;;;;;;5050506;28;20055;-62
2024/04/06 07:18:40;;;;;;;4.60;2.47;;;;;;;;;;5051232;28;20056;-62
2024/04/06 07:21:07;;;;;;;4.55;2.33;;;;;;;;;;5050764;28;20053;-62
2024/04/06 07:23:34;;;;;;;3.60;2.03;;;;;;;;;;5052595;28;20059;-62
2024/04/06 07:26:01;;;;;;;4.50;2.38;;;;;;;;;;5051134;28;20048;-62
2024/04/06 07:28:28;;;;;;;4.78;2.30;;;;;;;;;;5048679;28;20049;-62
2024/04/06 07:30:54;;;;;;;3.42;1.70;;;;;;;;;;5050942;28;20056;-62
2024/04/06 07:33:21;;;;;;;4.45;1.50;;;;;;;;;;5053935;28;20075;-62
2024/04/06 07:35:48;;;;;;;4.43;1.75;;;;;;;;;;5050544;28;20049;-62
2024/04/06 07:38:15;;;;;;;4.20;1.52;;;;;;;;;;5052266;28;20076;-62
2024/04/06 07:40:41;;;;;;;4.15;1.60;;;;;;;;;;5061273;28;20120;-62
2024/04/06 07:43:09;;;;;;;3.17;1.52;;;;;;;;;;5054155;28;20052;-62
2024/04/06 07:45:35;;;;;;;5.05;1.77;;;;;;;;;;5053525;28;20048;-62
2024/04/06 07:48:02;;;;;;;3.58;1.67;;;;;;;;;;5056175;28;20408;-61
2024/04/06 07:50:28;;;;;;;2.83;1.38;;;;;;;;;;5075014;28;20063;-62
2024/04/06 07:52:56;;;;;;;4.50;1.65;;;;;;;;;;5074901;28;20397;-62
2024/04/06 07:55:22;;;;;;;4.40;1.70;;;;;;;;;;5073748;28;20088;-62
2024/04/06 07:57:49;;;;;;;3.38;1.50;;;;;;;;;;5058765;28;20048;-62
2024/04/06 08:00:18;;;;;;;3.90;1.60;;;;;;;;;;5059118;28;20060;-62
2024/04/06 08:02:44;;;;;;;4.07;1.50;;;;;;;;;;5051038;28;20053;-62
2024/04/06 08:05:11;;;;;;;2.67;1.40;;;;;;;;;;5049686;28;20501;-62
2024/04/06 08:07:38;;;;;;;3.08;1.40;;;;;;;;;;5049633;28;20098;-62
2024/04/06 08:10:14;;;;;;;4.47;1.52;;;;;;;;;;5054530;28;20045;-61
2024/04/06 08:12:42;;;;;;;3.88;1.30;;;;;;;;;;5063042;28;20056;-61
2024/04/06 08:15:08;;;;;;;3.33;1.30;;;;;;;;;;5068997;28;20057;-62
2024/04/06 08:17:38;;;;;;;3.40;1.40;;;;;;;;;;5074560;28;20056;-62
2024/04/06 08:20:05;;;;;;;3.33;1.50;;;;;;;;;;5073830;28;20063;-62
2024/04/06 08:22:32;;;;;;;4.13;1.60;;;;;;;;;;5072433;28;20048;-62
2024/04/06 08:24:58;;;;;;;3.88;1.40;;;;;;;;;;5060363;28;20061;-62
2024/04/06 08:27:25;;;;;;;2.55;1.45;;;;;;;;;;5046917;28;20103;-61
2024/04/06 08:29:51;;;;;;;3.10;1.75;;;;;;;;;;5046885;28;20491;-62
2024/04/06 08:32:18;;;;;;;4.18;1.63;;;;;;;;;;5055135;28;20056;-62
2024/04/06 08:34:46;;;;;;;4.50;1.58;;;;;;;;;;5053222;28;20076;-62
2024/04/06 08:37:13;;;;;;;3.38;1.70;;;;;;;;;;5058346;28;20049;-62
2024/04/06 08:39:39;;;;;;;3.97;1.65;;;;;;;;;;5053929;28;20049;-62
2024/04/06 08:42:06;;;;;;;3.28;1.75;;;;;;;;;;5053449;28;20051;-61
2024/04/06 08:44:41;;;;;;;3.88;1.60;;;;;;;;;;5057850;28;20531;-62
2024/04/06 08:47:10;;;;;;;3.53;1.50;;;;;;;;;;5058444;28;20516;-62
2024/04/06 08:49:37;;;;;;;4.28;1.65;;;;;;;;;;5062906;28;20496;-62
2024/04/06 08:52:06;;;;;;;5.88;1.58;;;;;;;;;;5054000;28;20055;-62
2024/04/06 08:54:32;;;;;;;2.22;1.35;;;;;;;;;;5057899;28;20048;-62
2024/04/06 08:57:01;;;;;;;3.72;1.48;;;;;;;;;;5061157;28;20048;-62
2024/04/06 08:59:26;;;;;;;3.13;1.58;;;;;;;;;;5056100;28;20082;-62
2024/04/06 09:01:53;;;;;;;3.80;1.60;;;;;;;;;;5054854;28;20051;-62
2024/04/06 09:04:20;;;;;;;4.00;1.90;;;;;;;;;;5056319;28;20484;-62
2024/04/06 09:06:47;;;;;;;4.32;1.40;;;;;;;;;;5051068;28;20138;-62
2024/04/06 09:09:16;;;;;;;4.28;1.40;;;;;;;;;;5055748;28;20060;-62
2024/04/06 09:11:43;;;;;;;3.05;1.33;;;;;;;;;;5055723;28;20045;-62
2024/04/06 09:14:11;;;;;;;3.35;1.67;;;;;;;;;;5055026;28;20048;-62
2024/04/06 09:16:38;;;;;;;2.65;1.48;;;;;;;;;;5073454;28;20060;-62
2024/04/06 09:19:05;;;;;;;3.60;1.40;;;;;;;;;;5072950;28;20070;-62
2024/04/06 09:21:32;;;;;;;3.63;1.83;;;;;;;;;;5061338;28;20052;-62
2024/04/06 09:24:00;;;;;;;5.30;2.00;;;;;;;;;;5055361;28;20106;-64
2024/04/06 09:26:31;;;;;;;3.85;1.67;;;;;;;;;;5053002;28;20083;-61
2024/04/06 09:28:58;;;;;;;;;;;;;;;;;;5055880;28;20096;-61
2024/04/06 09:31:24;;;;;;;3.72;1.40;;;;;;;;;;5055926;28;19920;-61
2024/04/06 09:33:52;;;;;;;5.35;1.50;;;;;;;;;;5069582;28;20071;-61
2024/04/06 09:36:19;;;;;;;6.53;2.72;;;;;;;;;;5069191;28;20493;-62
2024/04/06 09:38:48;;;;;;;3.83;1.40;;;;;;;;;;5067298;28;20131;-62
2024/04/06 09:41:16;;;;;;;4.57;1.65;;;;;;;;;;5056377;28;20436;-62
2024/04/06 09:43:44;;;;;;;5.15;1.65;;;;;;;;;;5052704;28;20619;-62
2024/04/06 09:46:11;;;;;;;3.20;1.50;;;;;;;;;;5062187;28;20044;-61
2024/04/06 09:48:38;;;;;;;3.45;1.60;;;;;;;;;;5050629;28;20045;-62
2024/04/06 09:51:05;;;;;;;3.60;1.45;;;;;;;;;;5052700;28;20061;-61
2024/04/06 09:53:33;;;;;;;4.18;1.70;;;;;;;;;;5069123;28;20052;-62
2024/04/06 09:56:01;;;;;;;3.13;1.50;;;;;;;;;;5051948;28;20106;-62
2024/04/06 09:58:29;;;;;;;5.25;1.90;;;;;;;;;;5062413;28;20052;-61
2024/04/06 10:01:05;;;;;;;4.80;1.90;;;;;;;;;;5072623;28;20051;-61
2024/04/06 10:03:35;;;;;;;3.72;1.92;;;;;;;;;;5063310;28;20529;-61
2024/04/06 10:06:09;;;;;;;2.90;1.50;;;;;;;;;;5072040;28;20053;-62
2024/04/06 10:08:46;;;;;;;3.85;1.77;;;;;;;;;;5061972;28;20072;-62
2024/04/06 10:11:12;;;;;;;4.05;1.63;;;;;;;;;;5053571;28;20048;-62
2024/04/06 10:13:40;;;;;;;4.15;1.75;;;;;;;;;;5063337;28;20055;-61
2024/04/06 10:16:08;;;;;;;4.43;1.70;;;;;;;;;;5056838;28;20496;-61
2024/04/06 10:18:35;;;;;;;4.22;1.92;;;;;;;;;;5064345;28;20044;-61
2024/04/06 10:21:09;;;;;;;3.38;1.90;;;;;;;;;;5056884;28;20060;-62
2024/04/06 10:23:39;;;;;;;4.97;1.88;;;;;;;;;;5040510;28;20060;-62
2024/04/06 10:26:12;;;;;;;2.97;1.70;;;;;;;;;;5050533;28;20094;-62
2024/04/06 10:28:39;;;;;;;3.58;1.60;;;;;;;;;;5048512;28;20102;-62
2024/04/06 10:31:06;;;;;;;4.43;2.22;;;;;;;;;;5054912;28;20049;-62
2024/04/06 10:33:33;;;;;;;4.55;1.90;;;;;;;;;;5057268;28;20052;-62
2024/04/06 10:35:59;;;;;;;4.03;1.80;;;;;;;;;;5049049;28;20516;-62
2024/04/06 10:38:26;;;;;;;6.18;2.25;;;;;;;;;;5056700;28;20040;-63
2024/04/06 10:40:53;;;;;;;3.22;1.83;;;;;;;;;;5053813;28;20045;-62
2024/04/06 10:43:20;;;;;;;4.30;1.67;;;;;;;;;;5047025;28;20054;-62
2024/04/06 10:45:52;;;;;;;5.70;1.70;;;;;;;;;;5052367;28;20483;-62
2024/04/06 10:48:20;;;;;;;3.75;1.60;;;;;;;;;;5050183;28;20076;-62
2024/04/06 10:50:47;;;;;;;5.20;2.40;;;;;;;;;;5051956;28;20053;-62
2024/04/06 10:53:14;;;;;;;3.63;1.80;;;;;;;;;;5051167;28;20127;-62
2024/04/06 10:55:40;;;;;;;2.85;1.60;;;;;;;;;;5042691;28;20047;-62
2024/04/06 10:58:07;;;;;;;3.67;1.90;;;;;;;;;;5041519;28;20040;-62
2024/04/06 11:00:33;;;;;;;2.97;1.60;;;;;;;;;;5046716;28;20049;-64
2024/04/06 11:03:02;;;;;;;3.13;1.60;;;;;;;;;;5041076;28;20505;-62
2024/04/06 11:05:30;;;;;;;2.90;1.60;;;;;;;;;;5050513;28;20057;-62
2024/04/06 11:07:57;;;;;;;2.80;1.58;;;;;;;;;;5049499;28;20485;-62
2024/04/06 11:10:23;;;;;;;3.20;1.60;;;;;;;;;;5051133;28;20488;-62
2024/04/06 11:12:51;;;;;;;5.03;1.70;;;;;;;;;;5051700;28;20056;-62
2024/04/06 11:15:17;;;;;;;8.18;1.50;;;;;;;;;;5053440;28;20056;-62
2024/04/06 11:17:44;;;;;;;3.72;1.60;;;;;;;;;;5051108;28;20067;-61
2024/04/06 11:20:10;;;;;;;3.17;1.52;;;;;;;;;;5050900;28;20118;-62
2024/04/06 11:22:40;;;;;;;3.72;1.50;;;;;;;;;;5050934;28;20052;-62
2024/04/06 11:25:12;;;;;;;4.05;1.88;;;;;;;;;;5054335;28;20045;-62
2024/04/06 11:27:39;;;;;;;1.95;1.13;;;;;;;;;;5048564;28;20528;-62
2024/04/06 11:30:06;;;;;;;4.82;2.13;;;;;;;;;;5053620;28;20045;-66
2024/04/06 11:32:33;;;;;;;2.90;1.48;;;;;;;;;;5050881;28;20475;-61
2024/04/06 11:34:59;;;;;;;9.50;2.88;;;;;;;;;;5052846;28;20512;-63
2024/04/06 11:37:27;;;;;;;3.95;1.60;;;;;;;;;;5045889;28;20040;-64
2024/04/06 11:39:54;;;;;;;3.65;1.50;;;;;;;;;;5049178;28;20076;-64
2024/04/06 11:42:21;;;;;;;3.03;1.40;;;;;;;;;;5055521;28;20049;-64
2024/04/06 11:45:12;;;;;;;2.42;1.10;;;;;;;;;;5049651;28;20048;-63
2024/04/06 11:47:39;;;;;;;2.67;1.40;;;;;;;;;;5054903;28;20084;-62
2024/04/06 11:50:05;;;;;;;3.38;1.42;;;;;;;;;;5053334;28;20053;-59
2024/04/06 11:52:32;;;;;;;3.03;1.25;;;;;;;;;;5053307;28;20048;-61
2024/04/06 11:55:00;;;;;;;3.70;1.20;;;;;;;;;;5051730;28;20048;-58
2024/04/06 11:57:27;;;;;;;2.88;1.20;;;;;;;;;;5058215;28;20048;-60
2024/04/06 11:59:53;;;;;;;3.50;1.48;;;;;;;;;;5051513;28;20056;-54
2024/04/06 12:02:19;;;;;;;2.58;1.10;;;;;;;;;;5051183;28;20052;-61
2024/04/06 12:04:45;;;;;;;2.72;1.13;;;;;;;;;;5051886;28;20056;-62
2024/04/06 12:07:12;;;;;;;3.75;1.42;;;;;;;;;;5053179;28;20045;-62
2024/04/06 12:09:38;;;;;;;2.38;1.02;;;;;;;;;;5049994;28;20053;-59
2024/04/06 12:12:09;;;;;;;3.55;1.10;;;;;;;;;;5052528;28;20488;-62
2024/04/06 12:14:35;;;;;;;2.38;1.20;;;;;;;;;;5052740;28;20456;-63
2024/04/06 12:17:02;;;;;;;3.28;0.95;;;;;;;;;;5055992;28;20051;-61
2024/04/06 12:19:28;;;;;;;2.25;1.27;;;;;;;;;;5052868;28;20045;-61
2024/04/06 12:21:55;;;;;;;2.60;1.35;;;;;;;;;;5057511;28;20063;-61
2024/04/06 12:24:23;;;;;;;7.35;1.20;;;;;;;;;;5044098;28;20055;-64
2024/04/06 12:26:51;;;;;;;2.25;0.90;;;;;;;;;;5045633;28;20044;-61
2024/04/06 12:29:18;;;;;;;2.80;1.00;;;;;;;;;;5048022;28;20072;-61
2024/04/06 12:31:45;;;;;;;2.40;0.98;;;;;;;;;;5050874;28;20110;-60
2024/04/06 12:34:10;;;;;;;2.53;1.00;;;;;;;;;;5055076;28;20421;-61
2024/04/06 12:36:38;;;;;;;2.53;1.00;;;;;;;;;;5061350;28;20056;-61
2024/04/06 12:39:08;;;;;;;2.28;1.00;;;;;;;;;;5046995;28;20041;-58
2024/04/06 12:41:35;;;;;;;2.72;1.20;;;;;;;;;;5057464;28;20068;-59
2024/04/06 12:44:00;;;;;;;1.63;1.00;;;;;;;;;;5053642;28;20055;-60
2024/04/06 12:46:29;;;;;;;1.23;0.90;;;;;;;;;;5062104;28;20136;-59
2024/04/06 12:48:55;;;;;;;3.20;1.30;;;;;;;;;;5057710;28;20048;-60
2024/04/06 12:51:22;;;;;;;2.03;1.00;;;;;;;;;;5061370;28;20055;-60
2024/04/06 12:53:47;;;;;;;4.05;1.50;;;;;;;;;;5052977;28;20498;-56
2024/04/06 12:56:14;;;;;;;2.75;1.10;;;;;;;;;;5065390;28;20127;-60
2024/04/06 12:58:41;;;;;;;2.42;1.10;;;;;;;;;;5047020;28;20064;-60
2024/04/06 13:01:08;;;;;;;2.95;1.42;;;;;;;;;;5053933;28;20049;-61
2024/04/06 13:03:35;;;;;;;2.70;1.10;;;;;;;;;;5057039;28;20055;-61
2024/04/06 13:06:03;;;;;;;1.83;1.00;;;;;;;;;;5049558;28;20191;-61
2024/04/06 13:08:30;;;;;;;2.53;1.00;;;;;;;;;;5051474;28;20047;-61
2024/04/06 13:10:57;;;;;;;2.20;1.08;;;;;;;;;;5047767;28;20144;-61
2024/04/06 13:13:23;;;;;;;2.13;1.20;;;;;;;;;;5048109;28;20049;-60
2024/04/06 13:15:50;;;;;;;2.88;1.10;;;;;;;;;;5050327;28;20048;-60
2024/04/06 13:18:16;;;;;;;3.78;1.10;;;;;;;;;;5051454;28;20452;-61
2024/04/06 13:20:47;;;;;;;1.58;0.90;;;;;;;;;;5056600;28;20052;-62
2024/04/06 13:23:13;;;;;;;2.40;0.95;;;;;;;;;;5059957;28;20051;-61
2024/04/06 13:25:40;;;;;;;2.53;1.00;;;;;;;;;;5053962;28;20057;-61
2024/04/06 13:28:06;;;;;;;2.33;1.00;;;;;;;;;;5056262;28;20045;-61
2024/04/06 13:30:33;;;;;;;2.78;1.20;;;;;;;;;;5048765;28;20427;-61
2024/04/06 13:32:58;;;;;;;2.67;1.20;;;;;;;;;;5055269;28;20049;-61
2024/04/06 13:35:25;;;;;;;3.35;0.90;;;;;;;;;;5052994;28;20508;-59
2024/04/06 13:37:53;;;;;;;2.55;1.10;;;;;;;;;;5059171;28;20119;-61
2024/04/06 13:40:20;;;;;;;2.33;1.00;;;;;;;;;;5056107;28;20052;-61
2024/04/06 13:42:46;;;;;;;2.20;1.08;;;;;;;;;;5073023;28;20061;-60
2024/04/06 13:45:12;;;;;;;2.10;1.10;;;;;;;;;;5072079;28;20059;-59
2024/04/06 13:47:40;;;;;;;2.85;1.02;;;;;;;;;;5072552;28;20056;-61
2024/04/06 13:50:06;;;;;;;2.50;1.02;;;;;;;;;;5072933;28;20091;-61
2024/04/06 13:52:33;;;;;;;2.38;1.10;;;;;;;;;;5072186;28;20490;-61
2024/04/06 13:55:01;;;;;;;1.27;0.90;;;;;;;;;;5056207;28;20374;-60
2024/04/06 13:57:29;;;;;;;1.50;0.90;;;;;;;;;;5072559;28;20057;-61
2024/04/06 13:59:54;;;;;;;1.90;1.08;;;;;;;;;;5072044;28;20499;-61
2024/04/06 14:02:21;;;;;;;1.85;1.00;;;;;;;;;;5070327;28;20053;-62
2024/04/06 14:04:47;;;;;;;3.17;1.05;;;;;;;;;;5066720;28;20060;-61
2024/04/06 14:07:14;;;;;;;3.17;1.27;;;;;;;;;;5072169;28;20053;-62
2024/04/06 14:09:41;;;;;;;2.92;1.10;;;;;;;;;;5071951;28;20044;-61
2024/04/06 14:12:10;;;;;;;1.88;0.90;;;;;;;;;;5072414;28;20154;-61
2024/04/06 14:14:35;;;;;;;3.25;1.30;;;;;;;;;;5071934;28;20524;-61
2024/04/06 14:17:03;;;;;;;1.58;1.00;;;;;;;;;;5071884;28;20062;-59
2024/04/06 14:19:29;;;;;;;1.88;1.10;;;;;;;;;;5072243;28;20044;-60
2024/04/06 14:21:56;;;;;;;3.80;1.15;;;;;;;;;;5071608;28;20048;-59
2024/04/06 14:24:23;;;;;;;1.42;0.90;;;;;;;;;;5071553;28;20048;-60
2024/04/06 14:26:51;;;;;;;2.00;1.10;;;;;;;;;;5071938;28;20068;-61
2024/04/06 14:29:18;;;;;;;2.08;1.05;;;;;;;;;;5071418;28;20048;-61
2024/04/06 14:31:45;;;;;;;3.88;1.30;;;;;;;;;;5071517;28;20048;-61
2024/04/06 14:34:11;;;;;;;2.60;1.20;;;;;;;;;;5071761;28;20048;-61
2024/04/06 14:36:38;;;;;;;1.95;0.93;;;;;;;;;;5071227;28;20048;-60
2024/04/06 14:39:04;;;;;;;4.05;0.93;;;;;;;;;;5071648;28;20135;-61
2024/04/06 14:41:31;;;;;;;2.33;1.13;;;;;;;;;;5071756;28;20044;-60